Time;durP1;ratioP1;P1;durP2;ratioP2;P2;SDS_P1;SDS_P2;PMS_P1;PMS_P2;Temp;Humidity;BMP_temperature;BMP_pressure;BME280_temperature;BME280_humidity;BME280_pressure;Samples;Min_cycle;Max_cycle;Signal;HPM_P1;HPM_P2
2022/06/15 00:00:07;;;;;;;2.40;2.20;;;20.30;58.30;;;;;;5010710;28;20183;-86
2022/06/15 00:02:33;;;;;;;2.33;2.13;;;20.30;58.30;;;;;;4994442;28;20674;-86
2022/06/15 00:04:58;;;;;;;2.50;2.30;;;20.30;58.30;;;;;;5010114;28;20168;-86
2022/06/15 00:07:24;;;;;;;2.13;1.92;;;20.30;58.30;;;;;;5010828;28;20156;-86
2022/06/15 00:09:50;;;;;;;2.17;1.98;;;20.30;58.30;;;;;;4994231;28;20691;-86
2022/06/15 00:12:15;;;;;;;2.83;2.30;;;20.30;58.30;;;;;;5010647;28;20247;-86
2022/06/15 00:14:41;;;;;;;2.35;2.15;;;20.30;58.30;;;;;;4994613;28;20250;-86
2022/06/15 00:17:07;;;;;;;2.28;2.08;;;20.30;58.30;;;;;;5010570;28;20508;-87
2022/06/15 00:19:32;;;;;;;2.60;2.40;;;20.20;58.20;;;;;;4994124;28;20172;-87
2022/06/15 00:21:58;;;;;;;2.45;2.25;;;20.30;58.40;;;;;;5010365;28;20192;-87
2022/06/15 00:24:24;;;;;;;2.20;2.00;;;20.30;58.40;;;;;;5010398;28;20164;-87
2022/06/15 00:26:50;;;;;;;2.13;1.92;;;20.30;58.40;;;;;;5010221;28;20646;-86
2022/06/15 00:29:16;;;;;;;2.40;2.20;;;20.30;58.40;;;;;;5010320;28;20672;-86
2022/06/15 00:31:41;;;;;;;2.30;2.10;;;20.20;58.40;;;;;;5009991;28;20164;-86
2022/06/15 00:34:07;;;;;;;2.90;2.50;;;20.30;58.40;;;;;;4993899;28;20174;-87
2022/06/15 00:36:33;;;;;;;2.30;2.10;;;20.20;58.30;;;;;;5010173;28;20247;-86
2022/06/15 00:38:59;;;;;;;3.13;2.75;;;20.20;58.40;;;;;;5009924;28;20244;-86
2022/06/15 00:41:27;;;;;;;2.75;2.47;;;20.20;58.50;;;;;;5010065;28;20184;-87
2022/06/15 00:43:55;;;;;;;3.13;2.83;;;20.20;58.40;;;;;;4993192;28;20226;-86
2022/06/15 00:46:33;;;;;;;3.10;2.80;;;20.20;58.50;;;;;;4993650;28;20172;-87
2022/06/15 00:49:08;;;;;;;3.13;2.83;;;20.20;58.60;;;;;;5008940;28;20210;-86
2022/06/15 00:51:34;;;;;;;3.28;2.97;;;20.10;58.60;;;;;;5009687;28;20175;-87
2022/06/15 00:54:00;;;;;;;3.15;2.85;;;20.30;58.70;;;;;;5009830;28;20727;-88
2022/06/15 00:56:26;;;;;;;2.92;2.70;;;20.20;58.70;;;;;;5009769;28;20166;-86
2022/06/15 00:58:53;;;;;;;2.78;2.53;;;20.30;58.80;;;;;;5009750;28;20162;-87
2022/06/15 01:01:18;;;;;;;2.40;2.20;;;20.20;58.50;;;;;;4993904;28;20538;-87
2022/06/15 01:03:44;;;;;;;2.50;2.30;;;20.20;58.40;;;;;;5009886;28;20267;-87
2022/06/15 01:06:16;;;;;;;2.40;2.20;;;20.20;58.30;;;;;;5009699;28;20148;-86
2022/06/15 01:08:59;;;;;;;2.40;2.20;;;20.20;58.90;;;;;;4993176;28;20605;-87
2022/06/15 01:11:32;;;;;;;2.10;1.90;;;20.20;58.30;;;;;;4992116;28;20172;-87
2022/06/15 01:14:17;;;;;;;2.50;2.30;;;20.10;58.20;;;;;;5009108;28;20156;-86
2022/06/15 01:16:57;;;;;;;2.65;2.45;;;20.30;58.30;;;;;;4992199;28;20258;-87
2022/06/15 01:19:57;;;;;;;2.33;2.13;;;20.20;58.30;;;;;;5008816;28;20156;-86
2022/06/15 01:22:47;;;;;;;2.50;2.30;;;20.10;58.30;;;;;;5006899;28;20199;-86
2022/06/15 01:25:29;;;;;;;2.65;2.33;;;20.20;58.30;;;;;;5007423;28;20167;-87
2022/06/15 01:28:09;;;;;;;2.40;2.20;;;20.20;58.30;;;;;;4992988;28;20175;-87
2022/06/15 01:30:58;;;;;;;2.50;2.30;;;20.20;58.30;;;;;;5008012;28;20556;-86
2022/06/15 01:33:35;;;;;;;2.30;2.10;;;20.20;58.30;;;;;;4992843;28;20678;-86
2022/06/15 01:36:28;;;;;;;2.75;2.30;;;20.20;58.40;;;;;;5008530;28;20191;-87
2022/06/15 01:39:11;;;;;;;2.30;2.10;;;20.20;58.40;;;;;;5006814;28;20167;-87
2022/06/15 01:41:41;;;;;;;2.20;2.00;;;20.20;58.40;;;;;;5009332;28;20243;-86
2022/06/15 01:44:13;;;;;;;2.42;2.22;;;20.10;58.30;;;;;;5008633;28;20159;-86
2022/06/15 01:46:41;;;;;;;2.28;2.08;;;20.20;58.40;;;;;;5008558;28;20180;-86
2022/06/15 01:49:08;;;;;;;2.13;1.92;;;20.20;58.40;;;;;;4992767;28;20164;-86
2022/06/15 01:51:37;;;;;;;2.63;2.30;;;20.10;58.30;;;;;;4992412;28;20646;-86
2022/06/15 01:54:05;;;;;;;2.45;2.25;;;20.10;58.30;;;;;;4992863;28;20179;-87
2022/06/15 01:56:34;;;;;;;2.58;2.38;;;20.10;58.30;;;;;;5008816;28;20160;-86
2022/06/15 01:59:05;;;;;;;2.30;2.10;;;20.10;58.40;;;;;;5009011;28;20156;-85
2022/06/15 02:01:49;;;;;;;2.67;2.47;;;20.10;58.40;;;;;;5008594;28;20156;-85
2022/06/15 02:04:44;;;;;;;2.50;2.08;;;20.10;58.40;;;;;;5007012;28;20168;-86
2022/06/15 02:07:27;;;;;;;2.22;2.00;;;20.10;58.50;;;;;;4992692;28;20167;-86
2022/06/15 02:10:12;;;;;;;2.47;2.25;;;20.10;58.40;;;;;;5007108;28;20188;-86
2022/06/15 02:12:43;;;;;;;2.45;2.25;;;20.10;58.40;;;;;;5008940;28;20156;-87
2022/06/15 02:15:09;;;;;;;2.72;2.47;;;20.10;58.40;;;;;;5008328;28;20166;-85
2022/06/15 02:17:38;;;;;;;2.28;2.08;;;20.20;58.50;;;;;;4992548;28;20168;-86
2022/06/15 02:20:07;;;;;;;2.53;2.33;;;20.20;58.50;;;;;;4992264;28;20175;-87
2022/06/15 02:22:33;;;;;;;2.47;2.28;;;20.10;58.40;;;;;;4993482;28;20188;-86
2022/06/15 02:25:00;;;;;;;2.20;2.00;;;20.10;58.40;;;;;;5008800;28;20167;-86
2022/06/15 02:27:27;;;;;;;2.50;2.30;;;20.10;58.40;;;;;;4993552;28;20211;-85
2022/06/15 02:29:55;;;;;;;2.45;2.20;;;20.10;58.40;;;;;;5012530;28;20619;-86
2022/06/15 02:32:21;;;;;;;2.45;2.25;;;20.10;58.40;;;;;;5012284;28;20172;-86
2022/06/15 02:34:47;;;;;;;2.63;2.40;;;20.10;58.50;;;;;;5012431;28;20171;-86
2022/06/15 02:37:12;;;;;;;2.50;2.30;;;20.10;58.50;;;;;;4996016;28;20171;-87
2022/06/15 02:39:38;;;;;;;2.60;2.30;;;20.10;58.50;;;;;;5012483;28;20161;-87
2022/06/15 02:42:24;;;;;;;2.50;2.30;;;20.10;59.20;;;;;;4996108;28;20195;-87
2022/06/15 02:44:50;;;;;;;2.20;2.00;;;20.10;58.50;;;;;;4995587;28;20749;-87
2022/06/15 02:47:15;;;;;;;2.25;2.05;;;20.10;58.50;;;;;;4997039;28;20275;-87
2022/06/15 02:49:41;;;;;;;2.70;2.28;;;20.10;58.50;;;;;;5012254;28;20156;-86
2022/06/15 02:52:07;;;;;;;2.40;2.20;;;20.10;58.50;;;;;;4995643;28;20510;-86
2022/06/15 02:54:38;;;;;;;2.42;2.22;;;20.10;58.50;;;;;;5012082;28;20523;-86
2022/06/15 02:57:04;;;;;;;2.30;2.10;;;20.10;58.60;;;;;;4995619;28;20180;-87
2022/06/15 02:59:30;;;;;;;2.17;1.98;;;20.00;58.50;;;;;;5012036;28;20615;-87
2022/06/15 03:01:56;;;;;;;2.40;2.20;;;20.10;58.50;;;;;;4996185;28;20172;-87
2022/06/15 03:04:22;;;;;;;2.30;2.10;;;20.00;58.50;;;;;;5011742;28;20583;-85
2022/06/15 03:06:47;;;;;;;2.40;2.20;;;20.10;58.50;;;;;;4996798;28;20232;-86
2022/06/15 03:09:13;;;;;;;2.38;2.17;;;20.10;58.60;;;;;;5011847;28;20152;-87
2022/06/15 03:11:40;;;;;;;2.45;2.25;;;20.10;58.50;;;;;;4996737;28;20156;-87
2022/06/15 03:14:06;;;;;;;2.40;2.20;;;20.10;58.50;;;;;;4995765;28;20590;-88
2022/06/15 03:16:31;;;;;;;2.15;1.95;;;20.10;58.50;;;;;;5011665;28;20160;-87
2022/06/15 03:18:57;;;;;;;2.60;2.25;;;20.10;58.50;;;;;;5011513;28;20199;-88
2022/06/15 03:21:24;;;;;;;2.38;2.17;;;20.10;58.50;;;;;;4995365;28;20172;-86
2022/06/15 03:23:49;;;;;;;2.20;2.00;;;20.00;59.10;;;;;;5011490;28;20253;-88
2022/06/15 03:26:15;;;;;;;2.50;2.30;;;20.10;58.50;;;;;;5011568;28;20650;-86
2022/06/15 03:28:41;;;;;;;2.13;1.92;;;20.10;58.40;;;;;;5011495;28;20546;-87
2022/06/15 03:31:07;;;;;;;2.55;2.33;;;20.10;58.30;;;;;;5011517;28;20160;-88
2022/06/15 03:33:32;;;;;;;2.40;2.20;;;20.10;58.30;;;;;;5011398;28;20210;-85
2022/06/15 03:35:58;;;;;;;2.50;2.25;;;20.10;58.20;;;;;;5011435;28;20157;-88
2022/06/15 03:38:24;;;;;;;2.15;1.95;;;20.20;58.30;;;;;;4994350;28;20176;-86
2022/06/15 03:40:50;;;;;;;2.42;2.22;;;20.10;58.20;;;;;;5010746;28;20192;-87
2022/06/15 03:43:16;;;;;;;2.38;2.17;;;20.10;58.20;;;;;;4994936;28;20226;-87
2022/06/15 03:45:42;;;;;;;2.38;2.17;;;20.20;58.20;;;;;;4994688;28;20242;-86
2022/06/15 03:48:09;;;;;;;2.20;2.00;;;20.20;58.10;;;;;;4995397;28;20180;-87
2022/06/15 03:50:37;;;;;;;2.50;2.10;;;20.20;58.10;;;;;;5010960;28;20160;-85
2022/06/15 03:53:03;;;;;;;2.30;2.10;;;20.20;58.00;;;;;;5010917;28;20211;-86
2022/06/15 03:55:30;;;;;;;2.20;2.00;;;20.20;57.90;;;;;;5011022;28;20164;-86
2022/06/15 03:57:56;;;;;;;2.22;2.03;;;20.20;57.90;;;;;;5010939;28;20183;-87
2022/06/15 04:00:22;;;;;;;2.30;2.10;;;20.20;57.90;;;;;;5010954;28;20598;-86
2022/06/15 04:02:48;;;;;;;2.65;2.10;;;20.20;57.80;;;;;;4994428;28;20207;-86
2022/06/15 04:05:16;;;;;;;2.30;2.10;;;20.30;57.80;;;;;;5010690;28;20527;-87
2022/06/15 04:10:21;;;;;;;2.30;2.05;;;20.30;57.70;;;;;;5009330;28;20148;-87
2022/06/15 04:12:46;;;;;;;2.35;2.15;;;20.30;57.60;;;;;;5010678;28;20272;-87
2022/06/15 04:15:12;;;;;;;2.45;2.20;;;20.30;57.60;;;;;;5010959;28;20239;-86
2022/06/15 04:17:38;;;;;;;2.55;2.28;;;20.40;57.70;;;;;;4994036;28;20180;-86
2022/06/15 04:22:41;;;;;;;2.30;2.10;;;20.40;57.60;;;;;;5008978;28;20609;-88
2022/06/15 04:25:07;;;;;;;2.60;2.40;;;20.40;57.60;;;;;;5010445;28;20206;-86
2022/06/15 04:27:35;;;;;;;2.10;1.90;;;20.40;57.60;;;;;;5010546;28;20152;-87
2022/06/15 04:30:00;;;;;;;2.60;2.13;;;20.40;57.50;;;;;;5010209;28;20152;-86
2022/06/15 04:32:26;;;;;;;2.30;2.10;;;20.40;57.40;;;;;;4994031;28;20160;-87
2022/06/15 04:34:51;;;;;;;2.15;1.85;;;20.40;57.40;;;;;;5010274;28;20164;-87
2022/06/15 04:37:17;;;;;;;2.40;2.20;;;20.40;57.40;;;;;;4993792;28;20271;-86
2022/06/15 04:39:43;;;;;;;2.13;1.92;;;20.40;57.40;;;;;;5010205;28;20589;-86
2022/06/15 04:42:09;;;;;;;2.35;2.13;;;20.30;57.40;;;;;;5010092;28;20618;-85
2022/06/15 04:44:34;;;;;;;3.05;2.20;;;20.50;57.50;;;;;;5010087;28;20220;-87
2022/06/15 04:47:01;;;;;;;2.40;2.20;;;20.40;57.50;;;;;;5010024;28;20161;-87
2022/06/15 04:49:27;;;;;;;2.10;1.90;;;20.40;57.40;;;;;;5009986;28;20151;-86
2022/06/15 04:51:53;;;;;;;1.80;1.70;;;20.40;57.30;;;;;;4993281;28;20163;-86
2022/06/15 04:54:19;;;;;;;2.20;2.00;;;20.50;57.30;;;;;;5009920;28;20161;-87
2022/06/15 04:56:46;;;;;;;2.35;2.15;;;20.40;57.30;;;;;;5009880;28;20610;-86
2022/06/15 04:59:12;;;;;;;2.30;2.10;;;20.50;57.40;;;;;;5009924;28;20149;-87
2022/06/15 05:01:38;;;;;;;2.72;1.90;;;20.40;57.50;;;;;;5009822;28;20541;-88
2022/06/15 05:04:04;;;;;;;2.13;1.90;;;20.40;57.40;;;;;;4993575;28;20195;-87
2022/06/15 05:06:33;;;;;;;2.20;2.00;;;20.40;57.40;;;;;;4993721;28;20527;-86
2022/06/15 05:08:59;;;;;;;2.00;1.80;;;20.40;57.40;;;;;;5009359;28;20615;-86
2022/06/15 05:11:26;;;;;;;2.03;1.83;;;20.40;57.40;;;;;;5009557;28;20164;-86
2022/06/15 05:13:52;;;;;;;1.98;1.88;;;20.50;57.50;;;;;;4993186;28;20165;-87
2022/06/15 05:16:18;;;;;;;2.35;2.10;;;20.40;57.50;;;;;;5009394;28;20242;-87
2022/06/15 05:18:44;;;;;;;2.10;1.90;;;20.40;57.50;;;;;;4993602;28;20168;-86
2022/06/15 05:21:10;;;;;;;1.80;1.70;;;20.40;57.50;;;;;;4993085;28;20631;-86
2022/06/15 05:23:35;;;;;;;2.15;1.95;;;20.40;57.50;;;;;;4992961;28;20242;-86
2022/06/15 05:26:01;;;;;;;1.85;1.75;;;20.40;57.60;;;;;;5009732;28;20161;-87
2022/06/15 05:28:27;;;;;;;1.70;1.60;;;20.40;57.60;;;;;;5009438;28;20175;-86
2022/06/15 05:31:07;;;;;;;2.17;1.98;;;20.40;57.50;;;;;;5009664;28;20164;-88
2022/06/15 05:33:33;;;;;;;2.67;1.95;;;20.40;57.30;;;;;;5008628;28;20194;-87
2022/06/15 05:36:02;;;;;;;2.00;1.90;;;20.40;57.30;;;;;;5009170;28;20156;-87
2022/06/15 05:38:28;;;;;;;2.10;1.80;;;20.50;57.40;;;;;;4992621;28;20175;-88
2022/06/15 05:40:53;;;;;;;2.08;1.88;;;20.50;57.30;;;;;;4992888;28;20168;-87
2022/06/15 05:43:19;;;;;;;1.95;1.75;;;20.50;57.20;;;;;;5009409;28;20187;-87
2022/06/15 05:45:45;;;;;;;3.03;1.77;;;20.50;57.00;;;;;;4992549;28;20219;-86
2022/06/15 05:48:11;;;;;;;2.47;2.15;;;20.60;57.10;;;;;;5008946;28;20522;-87
2022/06/15 05:50:36;;;;;;;2.10;1.90;;;20.60;57.20;;;;;;5008824;28;20320;-86
2022/06/15 05:53:02;;;;;;;2.13;1.92;;;20.60;57.20;;;;;;5009413;28;20508;-88
2022/06/15 05:55:27;;;;;;;2.90;2.00;;;20.50;57.20;;;;;;4993113;28;20237;-87
2022/06/15 05:57:53;;;;;;;2.13;1.92;;;20.50;57.10;;;;;;5009039;28;20160;-87
2022/06/15 06:00:19;;;;;;;2.17;1.98;;;20.50;57.20;;;;;;5008999;28;20160;-87
2022/06/15 06:02:45;;;;;;;1.70;1.60;;;20.40;57.10;;;;;;5011030;28;20223;-88
2022/06/15 06:05:11;;;;;;;1.83;1.67;;;20.50;57.00;;;;;;5013144;28;20160;-87
2022/06/15 06:07:36;;;;;;;2.40;1.85;;;20.50;56.90;;;;;;4996502;28;20215;-86
2022/06/15 06:10:03;;;;;;;2.72;1.75;;;20.60;56.70;;;;;;4996686;28;20156;-88
2022/06/15 06:12:28;;;;;;;2.20;2.00;;;20.60;56.80;;;;;;5013201;28;20215;-86
2022/06/15 06:14:54;;;;;;;1.77;1.67;;;20.60;56.70;;;;;;4996488;28;20176;-87
2022/06/15 06:17:20;;;;;;;1.80;1.63;;;20.70;56.40;;;;;;5012895;28;20226;-86
2022/06/15 06:19:46;;;;;;;3.03;2.05;;;20.70;56.20;;;;;;5012552;28;20176;-87
2022/06/15 06:22:12;;;;;;;1.70;1.60;;;20.70;56.40;;;;;;4997544;28;20196;-86
2022/06/15 06:24:37;;;;;;;2.03;1.70;;;20.60;56.40;;;;;;5012656;28;20526;-86
2022/06/15 06:27:05;;;;;;;1.70;1.60;;;20.70;56.30;;;;;;4996188;28;20534;-85
2022/06/15 06:29:31;;;;;;;2.00;1.80;;;20.70;56.10;;;;;;5012539;28;20188;-87
2022/06/15 06:31:58;;;;;;;1.52;1.42;;;20.70;56.00;;;;;;4996192;28;20549;-88
2022/06/15 06:34:24;;;;;;;2.60;1.98;;;20.70;56.30;;;;;;5012618;28;20153;-87
2022/06/15 06:36:50;;;;;;;1.60;1.50;;;20.70;56.20;;;;;;5012432;28;20156;-86
2022/06/15 06:39:20;;;;;;;2.55;1.65;;;20.70;56.20;;;;;;4996067;28;20175;-85
2022/06/15 06:41:46;;;;;;;1.70;1.60;;;20.70;56.00;;;;;;5011672;28;20156;-86
2022/06/15 06:44:12;;;;;;;1.70;1.60;;;20.80;56.10;;;;;;5011803;28;20552;-86
2022/06/15 06:46:40;;;;;;;1.50;1.40;;;20.70;55.90;;;;;;4995915;28;20653;-87
2022/06/15 06:49:06;;;;;;;1.88;1.73;;;20.80;55.90;;;;;;4995290;28;20164;-86
2022/06/15 06:51:32;;;;;;;2.08;1.88;;;20.80;55.80;;;;;;4995607;28;20705;-86
2022/06/15 06:53:58;;;;;;;1.80;1.42;;;20.80;56.00;;;;;;4995919;28;20231;-87
2022/06/15 06:56:23;;;;;;;1.60;1.50;;;20.80;55.70;;;;;;4995578;28;20538;-85
2022/06/15 06:58:49;;;;;;;1.80;1.70;;;20.90;55.60;;;;;;5012024;28;20164;-86
2022/06/15 07:01:14;;;;;;;1.95;1.60;;;20.90;55.70;;;;;;4996193;28;20639;-85
2022/06/15 07:03:40;;;;;;;1.40;1.30;;;20.80;55.60;;;;;;5011726;28;20184;-86
2022/06/15 07:06:08;;;;;;;1.77;1.67;;;20.90;55.70;;;;;;5011936;28;20525;-85
2022/06/15 07:08:36;;;;;;;1.58;1.48;;;20.80;55.80;;;;;;4995487;28;20204;-86
2022/06/15 07:11:08;;;;;;;1.73;1.63;;;20.70;55.50;;;;;;5011467;28;20148;-87
2022/06/15 07:13:34;;;;;;;1.50;1.40;;;20.80;55.50;;;;;;4995342;28;20172;-86
2022/06/15 07:16:06;;;;;;;1.60;1.50;;;20.80;55.70;;;;;;4995499;28;20172;-86
2022/06/15 07:18:31;;;;;;;1.85;1.73;;;20.80;55.60;;;;;;5011745;28;20171;-87
2022/06/15 07:21:04;;;;;;;1.73;1.63;;;20.80;55.60;;;;;;5011680;28;20160;-86
2022/06/15 07:23:30;;;;;;;1.90;1.75;;;20.80;56.00;;;;;;4994964;28;20204;-86
2022/06/15 07:25:56;;;;;;;1.73;1.58;;;20.80;55.70;;;;;;4995177;28;20180;-86
2022/06/15 07:28:21;;;;;;;2.10;1.40;;;20.80;55.80;;;;;;4995214;28;20168;-87
2022/06/15 07:30:47;;;;;;;2.03;1.70;;;20.80;55.60;;;;;;4996340;28;20231;-85
2022/06/15 07:33:15;;;;;;;1.65;1.55;;;20.90;55.40;;;;;;4996224;28;20210;-84
2022/06/15 07:35:41;;;;;;;1.70;1.60;;;20.80;55.70;;;;;;4995167;28;20172;-87
2022/06/15 07:38:07;;;;;;;1.67;1.58;;;20.80;55.60;;;;;;5011388;28;20148;-87
2022/06/15 07:40:32;;;;;;;2.45;1.55;;;20.90;55.40;;;;;;5011804;28;20211;-87
2022/06/15 07:42:58;;;;;;;3.15;1.63;;;20.90;55.40;;;;;;4996179;28;20270;-86
2022/06/15 07:45:24;;;;;;;3.60;1.55;;;20.80;55.50;;;;;;4994637;28;20246;-85
2022/06/15 07:50:35;;;;;;;1.55;1.45;;;20.90;55.40;;;;;;5008827;28;20673;-86
2022/06/15 07:53:02;;;;;;;1.67;1.52;;;20.90;56.00;;;;;;5011043;28;20188;-86
2022/06/15 07:55:30;;;;;;;1.77;1.67;;;21.00;55.20;;;;;;5011004;28;20156;-87
2022/06/15 07:57:55;;;;;;;2.90;1.40;;;20.90;55.30;;;;;;5010883;28;20164;-87
2022/06/15 08:00:22;;;;;;;3.60;1.10;;;20.90;55.20;;;;;;5010938;28;20244;-87
2022/06/15 08:02:48;;;;;;;3.63;1.60;;;20.90;55.00;;;;;;4994474;28;20200;-86
2022/06/15 08:05:14;;;;;;;5.43;1.65;;;20.90;55.10;;;;;;5010714;28;20168;-86
2022/06/15 08:07:40;;;;;;;1.73;1.60;;;20.90;55.30;;;;;;5010805;28;20598;-86
2022/06/15 08:10:06;;;;;;;1.58;1.48;;;20.90;55.00;;;;;;5010796;28;20163;-86
2022/06/15 08:12:32;;;;;;;2.45;1.63;;;21.00;55.00;;;;;;5010680;28;20530;-85
2022/06/15 08:14:59;;;;;;;3.67;1.55;;;21.00;54.80;;;;;;4994841;28;20175;-86
2022/06/15 08:17:34;;;;;;;1.50;1.40;;;21.00;55.90;;;;;;4994257;28;20168;-86
2022/06/15 08:20:10;;;;;;;1.63;1.52;;;20.90;55.70;;;;;;5009796;28;20156;-86
2022/06/15 08:22:36;;;;;;;2.88;1.77;;;20.90;55.00;;;;;;5010289;28;20186;-85
2022/06/15 08:25:03;;;;;;;1.60;1.50;;;20.90;55.20;;;;;;5010000;28;20183;-85
2022/06/15 08:27:29;;;;;;;2.17;1.85;;;20.90;54.90;;;;;;5010640;28;20163;-85
2022/06/15 08:29:54;;;;;;;1.45;1.35;;;21.00;55.30;;;;;;5010529;28;20232;-86
2022/06/15 08:32:20;;;;;;;6.18;1.60;;;21.00;55.10;;;;;;4993928;28;20626;-86
2022/06/15 08:34:46;;;;;;;3.90;1.50;;;21.00;55.20;;;;;;4993933;28;20642;-86
2022/06/15 08:37:13;;;;;;;1.63;1.20;;;21.00;55.10;;;;;;5010300;28;20642;-86
2022/06/15 08:39:39;;;;;;;2.70;1.50;;;20.90;55.50;;;;;;4994910;28;20160;-87
2022/06/15 08:42:12;;;;;;;2.08;1.65;;;20.90;55.10;;;;;;5010017;28;20622;-85
2022/06/15 08:45:04;;;;;;;3.38;1.40;;;21.10;54.90;;;;;;5009883;28;20226;-86
2022/06/15 08:47:50;;;;;;;3.72;1.42;;;21.10;55.10;;;;;;5007325;28;20148;-86
2022/06/15 08:50:24;;;;;;;1.88;1.60;;;21.00;55.00;;;;;;5008150;28;20610;-86
2022/06/15 08:52:56;;;;;;;2.00;1.67;;;21.00;54.90;;;;;;5009206;28;20163;-86
2022/06/15 08:55:28;;;;;;;3.25;1.40;;;21.10;54.70;;;;;;4993297;28;20263;-86
2022/06/15 08:57:55;;;;;;;3.80;1.40;;;21.00;55.10;;;;;;5009566;28;20693;-86
2022/06/15 09:00:26;;;;;;;1.50;1.30;;;21.10;55.00;;;;;;4993150;28;20187;-85
2022/06/15 09:03:21;;;;;;;2.65;1.50;;;21.10;54.60;;;;;;5009466;28;20183;-86
2022/06/15 09:05:56;;;;;;;1.30;1.20;;;21.20;54.70;;;;;;5009764;28;20601;-85
2022/06/15 09:08:58;;;;;;;2.60;1.48;;;21.20;54.50;;;;;;5009647;28;20151;-85
2022/06/15 09:11:40;;;;;;;1.80;1.30;;;21.20;54.60;;;;;;5009383;28;20148;-86
2022/06/15 09:14:15;;;;;;;1.30;1.17;;;21.10;54.60;;;;;;4993121;28;20176;-85
2022/06/15 09:17:10;;;;;;;2.35;1.58;;;21.20;54.60;;;;;;4992515;28;20211;-86
2022/06/15 09:19:40;;;;;;;1.70;1.60;;;21.10;54.60;;;;;;5006885;28;20529;-86
2022/06/15 09:22:10;;;;;;;2.30;1.40;;;21.20;54.60;;;;;;5009387;28;20164;-85
2022/06/15 09:24:48;;;;;;;2.85;1.40;;;21.20;54.60;;;;;;4993844;28;20176;-85
2022/06/15 09:27:21;;;;;;;2.80;1.63;;;21.10;54.60;;;;;;4992350;28;20163;-86
2022/06/15 09:29:59;;;;;;;2.17;1.50;;;21.10;54.50;;;;;;5008709;28;20152;-85
2022/06/15 09:32:30;;;;;;;1.65;1.55;;;21.20;54.40;;;;;;4992800;28;20199;-86
2022/06/15 09:35:10;;;;;;;3.03;1.30;;;21.20;54.40;;;;;;4992697;28;20599;-86
2022/06/15 09:37:36;;;;;;;2.85;1.60;;;21.30;54.30;;;;;;5007165;28;20156;-86
2022/06/15 09:40:03;;;;;;;1.50;1.40;;;21.30;54.20;;;;;;5009152;28;20168;-85
2022/06/15 09:43:01;;;;;;;1.80;1.60;;;21.20;54.30;;;;;;4992603;28;20620;-85
2022/06/15 09:45:32;;;;;;;2.55;1.50;;;21.20;54.10;;;;;;5006388;28;20226;-86
2022/06/15 09:48:10;;;;;;;2.70;1.30;;;21.20;53.90;;;;;;4992623;28;20195;-86
2022/06/15 09:50:54;;;;;;;2.58;1.40;;;21.20;53.90;;;;;;4993013;28;20178;-86
2022/06/15 09:53:41;;;;;;;1.70;1.50;;;21.30;54.30;;;;;;5009008;28;20546;-86
2022/06/15 09:56:10;;;;;;;1.60;1.40;;;21.20;54.60;;;;;;5006938;28;20634;-85
2022/06/15 09:58:55;;;;;;;1.35;1.25;;;21.20;54.40;;;;;;4992320;28;20268;-86
2022/06/15 10:01:25;;;;;;;1.55;1.40;;;21.20;54.50;;;;;;4992548;28;20164;-86
2022/06/15 10:03:52;;;;;;;2.33;1.40;;;21.20;54.10;;;;;;4992364;28;20282;-86
2022/06/15 10:06:35;;;;;;;2.53;1.60;;;21.30;54.10;;;;;;5009290;28;20243;-86
2022/06/15 10:09:01;;;;;;;2.35;1.80;;;21.30;54.10;;;;;;4992332;28;20511;-88
2022/06/15 10:11:35;;;;;;;1.80;1.50;;;21.20;54.00;;;;;;4992769;28;20255;-86
2022/06/15 10:14:27;;;;;;;3.20;1.40;;;21.30;54.00;;;;;;5008767;28;20160;-86
2022/06/15 10:17:04;;;;;;;2.50;1.65;;;21.40;53.90;;;;;;4992402;28;20207;-86
2022/06/15 10:19:32;;;;;;;1.40;1.30;;;21.30;54.20;;;;;;4951577;29;20272;-85
2022/06/15 10:22:09;;;;;;;2.15;1.38;;;21.30;54.10;;;;;;4969378;28;20185;-85
2022/06/15 10:24:40;;;;;;;4.28;1.50;;;21.30;54.70;;;;;;4895170;29;20210;-85
2022/06/15 10:27:28;;;;;;;2.35;1.60;;;21.20;54.00;;;;;;4849411;29;20187;-85
2022/06/15 10:29:58;;;;;;;3.40;1.40;;;21.40;53.80;;;;;;4880358;29;20187;-85
2022/06/15 10:32:26;;;;;;;1.95;1.60;;;21.30;54.10;;;;;;4864778;29;20179;-85
2022/06/15 10:35:17;;;;;;;1.92;1.75;;;21.30;53.90;;;;;;4895620;29;20188;-85
2022/06/15 10:37:53;;;;;;;2.13;1.60;;;21.30;54.40;;;;;;4864571;29;20168;-85
2022/06/15 10:40:28;;;;;;;1.30;1.20;;;21.30;54.20;;;;;;4865577;29;20235;-85
2022/06/15 10:43:11;;;;;;;2.78;1.27;;;21.30;53.90;;;;;;4879745;29;20366;-85
2022/06/15 10:46:01;;;;;;;1.50;1.30;;;21.30;54.00;;;;;;4881494;29;20223;-85
2022/06/15 10:48:51;;;;;;;1.90;1.70;;;21.30;54.10;;;;;;4878151;29;20184;-85
2022/06/15 10:51:32;;;;;;;1.80;1.45;;;21.30;54.10;;;;;;4848394;29;20189;-85
2022/06/15 10:54:31;;;;;;;3.63;1.30;;;21.30;54.20;;;;;;4858574;29;20224;-84
2022/06/15 11:03:03;;;;;;;1.95;1.50;;;21.20;54.50;;;;;;4910130;29;20291;-85
2022/06/15 11:05:32;;;;;;;2.30;1.50;;;21.20;54.20;;;;;;4882889;29;20628;-85
2022/06/15 11:08:08;;;;;;;1.63;1.50;;;21.20;54.30;;;;;;4914232;29;20179;-85
2022/06/15 11:10:39;;;;;;;1.77;1.48;;;21.20;54.40;;;;;;4876231;29;20184;-85
2022/06/15 11:13:24;;;;;;;1.50;1.40;;;21.20;54.20;;;;;;4879937;29;20223;-85
2022/06/15 11:18:44;;;;;;;3.20;1.55;;;21.30;53.80;;;;;;4866877;29;20651;-85
2022/06/15 11:21:16;;;;;;;1.30;1.20;;;21.40;53.80;;;;;;4878169;29;20331;-86
2022/06/15 11:24:04;;;;;;;1.40;1.30;;;21.40;53.80;;;;;;4917129;29;20216;-85
2022/06/15 11:27:03;;;;;;;3.25;1.40;;;21.40;53.90;;;;;;4930823;29;20189;-86
2022/06/15 11:29:45;;;;;;;1.70;1.60;;;21.30;53.70;;;;;;4917597;29;20293;-86
2022/06/15 11:32:28;;;;;;;1.52;1.42;;;21.40;53.60;;;;;;4917168;29;20314;-85
2022/06/15 11:35:18;;;;;;;1.50;1.40;;;21.50;53.70;;;;;;4916316;29;20181;-87
2022/06/15 11:38:11;;;;;;;1.50;1.40;;;21.30;53.70;;;;;;4914441;29;20160;-86
2022/06/15 11:40:45;;;;;;;1.60;1.50;;;21.30;53.80;;;;;;4932773;29;20242;-85
2022/06/15 11:43:15;;;;;;;1.60;1.45;;;21.40;53.50;;;;;;4939026;29;20593;-86
2022/06/15 11:45:53;;;;;;;1.60;1.50;;;21.40;53.70;;;;;;4923312;29;20225;-85
2022/06/15 11:48:35;;;;;;;1.92;1.73;;;21.50;53.70;;;;;;4924157;29;20157;-86
2022/06/15 11:51:16;;;;;;;2.40;1.55;;;21.50;53.60;;;;;;4929123;28;20261;-85
2022/06/15 11:54:00;;;;;;;1.60;1.50;;;21.50;53.70;;;;;;4997264;28;20225;-85
2022/06/15 11:56:28;;;;;;;1.45;1.23;;;21.40;53.90;;;;;;4995810;28;20219;-84
2022/06/15 11:59:01;;;;;;;2.88;1.88;;;21.40;53.90;;;;;;5011386;28;20160;-85
2022/06/15 12:01:47;;;;;;;1.60;1.50;;;21.40;53.80;;;;;;5009719;28;20156;-86
2022/06/15 12:04:42;;;;;;;1.92;1.70;;;21.40;53.90;;;;;;5010761;28;20187;-86
2022/06/15 12:07:22;;;;;;;2.63;1.60;;;21.30;54.10;;;;;;4993029;28;20175;-86
2022/06/15 12:10:06;;;;;;;1.65;1.55;;;21.30;54.10;;;;;;4994240;28;20657;-85
2022/06/15 12:12:52;;;;;;;1.70;1.50;;;21.30;54.10;;;;;;4993443;28;20199;-85
2022/06/15 12:15:32;;;;;;;1.50;1.40;;;21.40;54.10;;;;;;5008359;28;20243;-85
2022/06/15 12:18:22;;;;;;;1.50;1.40;;;21.40;54.10;;;;;;4992991;28;20176;-85
2022/06/15 12:21:02;;;;;;;2.20;1.50;;;21.40;54.10;;;;;;5008104;28;20176;-84
2022/06/15 12:23:56;;;;;;;1.60;1.50;;;21.40;54.00;;;;;;4993842;28;20245;-85
2022/06/15 12:26:43;;;;;;;1.42;1.30;;;21.40;54.00;;;;;;4991411;28;20175;-85
2022/06/15 12:29:21;;;;;;;1.70;1.60;;;21.50;54.00;;;;;;5008908;28;20183;-85
2022/06/15 12:32:27;;;;;;;2.35;1.73;;;21.50;53.70;;;;;;5009068;28;20148;-85
2022/06/15 12:34:58;;;;;;;1.58;1.48;;;21.50;53.70;;;;;;4993877;28;20172;-86
2022/06/15 12:37:36;;;;;;;1.50;1.40;;;21.50;53.70;;;;;;4993818;28;20206;-86
2022/06/15 12:40:13;;;;;;;1.40;1.30;;;21.50;53.70;;;;;;4992500;28;20170;-86
2022/06/15 12:42:41;;;;;;;1.90;1.70;;;21.50;53.70;;;;;;5009574;28;20224;-86
2022/06/15 12:45:14;;;;;;;1.65;1.55;;;21.50;54.40;;;;;;4992926;28;20235;-86
2022/06/15 12:47:39;;;;;;;1.83;1.40;;;21.50;53.80;;;;;;4993230;28;20215;-85
2022/06/15 12:50:24;;;;;;;2.55;1.55;;;21.40;53.80;;;;;;5009937;28;20160;-85
2022/06/15 12:53:15;;;;;;;1.48;1.38;;;21.50;53.90;;;;;;5008932;28;20160;-86
2022/06/15 12:55:49;;;;;;;1.60;1.50;;;21.50;53.80;;;;;;4993855;28;20175;-86
2022/06/15 12:58:32;;;;;;;2.00;1.83;;;21.50;54.00;;;;;;4992649;28;20409;-85
2022/06/15 13:01:07;;;;;;;1.75;1.60;;;21.30;53.80;;;;;;5008240;28;20631;-85
2022/06/15 13:03:58;;;;;;;1.48;1.35;;;21.40;53.70;;;;;;4992245;28;20206;-85
2022/06/15 13:06:28;;;;;;;1.50;1.40;;;21.50;53.60;;;;;;4993219;28;20160;-85
2022/06/15 13:09:18;;;;;;;1.60;1.50;;;21.60;53.70;;;;;;5009142;28;20156;-86
2022/06/15 13:12:07;;;;;;;1.63;1.52;;;21.50;53.60;;;;;;5009632;28;20230;-85
2022/06/15 13:14:50;;;;;;;1.70;1.60;;;21.60;53.60;;;;;;4991229;28;20564;-89
2022/06/15 13:17:18;;;;;;;2.40;1.60;;;21.60;53.60;;;;;;4991204;28;20167;-91
2022/06/15 13:19:46;;;;;;;1.85;1.70;;;21.60;53.50;;;;;;4993342;28;20160;-86
2022/06/15 13:22:32;;;;;;;1.80;1.70;;;21.60;53.60;;;;;;4993195;28;20165;-86
2022/06/15 13:25:16;;;;;;;1.55;1.40;;;21.50;53.70;;;;;;5007682;28;20674;-86
2022/06/15 13:27:46;;;;;;;2.10;1.70;;;21.50;53.80;;;;;;4994861;28;20156;-86